sensor_id;sensor_type;location;lat;lon;timestamp;P1;durP1;ratioP1;P2;durP2;ratioP2
49440;SDS011;35317;51.978;6.296;2023-05-07T00:02:04;5.97;;;3.97;;
49440;SDS011;35317;51.978;6.296;2023-05-07T00:07:07;5.38;;;3.95;;
49440;SDS011;35317;51.978;6.296;2023-05-07T00:12:08;4.25;;;3.40;;
49440;SDS011;35317;51.978;6.296;2023-05-07T00:17:08;6.25;;;3.83;;
49440;SDS011;35317;51.978;6.296;2023-05-07T00:22:09;7.60;;;3.70;;
49440;SDS011;35317;51.978;6.296;2023-05-07T00:27:10;4.35;;;2.90;;
49440;SDS011;35317;51.978;6.296;2023-05-07T00:32:11;5.70;;;3.47;;
49440;SDS011;35317;51.978;6.296;2023-05-07T00:37:12;8.88;;;5.30;;
49440;SDS011;35317;51.978;6.296;2023-05-07T00:42:12;7.97;;;4.82;;
49440;SDS011;35317;51.978;6.296;2023-05-07T00:47:15;7.13;;;4.75;;
49440;SDS011;35317;51.978;6.296;2023-05-07T00:52:16;6.75;;;4.28;;
49440;SDS011;35317;51.978;6.296;2023-05-07T00:57:18;7.47;;;4.38;;
49440;SDS011;35317;51.978;6.296;2023-05-07T01:02:21;6.93;;;4.28;;
49440;SDS011;35317;51.978;6.296;2023-05-07T01:07:22;7.82;;;4.00;;
49440;SDS011;35317;51.978;6.296;2023-05-07T01:12:24;6.22;;;4.43;;
49440;SDS011;35317;51.978;6.296;2023-05-07T01:17:25;6.35;;;3.88;;
49440;SDS011;35317;51.978;6.296;2023-05-07T01:22:33;6.50;;;3.60;;
49440;SDS011;35317;51.978;6.296;2023-05-07T01:27:36;6.72;;;3.95;;
49440;SDS011;35317;51.978;6.296;2023-05-07T01:32:38;7.28;;;4.18;;
49440;SDS011;35317;51.978;6.296;2023-05-07T01:37:44;7.43;;;3.83;;
49440;SDS011;35317;51.978;6.296;2023-05-07T01:42:46;7.20;;;4.10;;
49440;SDS011;35317;51.978;6.296;2023-05-07T01:47:48;7.00;;;4.70;;
49440;SDS011;35317;51.978;6.296;2023-05-07T01:52:50;9.20;;;4.55;;
49440;SDS011;35317;51.978;6.296;2023-05-07T01:57:51;7.40;;;4.85;;
49440;SDS011;35317;51.978;6.296;2023-05-07T02:02:52;7.95;;;4.72;;
49440;SDS011;35317;51.978;6.296;2023-05-07T02:07:53;10.02;;;6.32;;
49440;SDS011;35317;51.978;6.296;2023-05-07T02:12:54;11.70;;;6.93;;
49440;SDS011;35317;51.978;6.296;2023-05-07T02:17:59;11.32;;;7.47;;
49440;SDS011;35317;51.978;6.296;2023-05-07T02:23:02;11.02;;;7.60;;
49440;SDS011;35317;51.978;6.296;2023-05-07T02:28:03;12.23;;;7.65;;
49440;SDS011;35317;51.978;6.296;2023-05-07T02:33:04;11.73;;;7.88;;
49440;SDS011;35317;51.978;6.296;2023-05-07T02:38:05;12.70;;;8.25;;
49440;SDS011;35317;51.978;6.296;2023-05-07T02:43:06;11.98;;;8.55;;
49440;SDS011;35317;51.978;6.296;2023-05-07T02:48:07;13.13;;;8.05;;
49440;SDS011;35317;51.978;6.296;2023-05-07T02:53:07;14.00;;;9.10;;
49440;SDS011;35317;51.978;6.296;2023-05-07T02:58:08;12.00;;;8.15;;
49440;SDS011;35317;51.978;6.296;2023-05-07T03:03:09;12.32;;;8.05;;
49440;SDS011;35317;51.978;6.296;2023-05-07T03:08:10;11.98;;;8.20;;
49440;SDS011;35317;51.978;6.296;2023-05-07T03:13:11;11.75;;;7.80;;
49440;SDS011;35317;51.978;6.296;2023-05-07T03:18:12;14.60;;;8.27;;
49440;SDS011;35317;51.978;6.296;2023-05-07T03:23:13;12.45;;;9.00;;
49440;SDS011;35317;51.978;6.296;2023-05-07T03:28:14;13.57;;;9.23;;
49440;SDS011;35317;51.978;6.296;2023-05-07T03:33:14;14.48;;;9.15;;
49440;SDS011;35317;51.978;6.296;2023-05-07T03:38:15;13.57;;;8.63;;
49440;SDS011;35317;51.978;6.296;2023-05-07T03:43:16;17.20;;;10.55;;
49440;SDS011;35317;51.978;6.296;2023-05-07T03:48:17;15.00;;;9.65;;
49440;SDS011;35317;51.978;6.296;2023-05-07T03:53:17;15.85;;;9.88;;
49440;SDS011;35317;51.978;6.296;2023-05-07T03:58:18;14.20;;;9.38;;
49440;SDS011;35317;51.978;6.296;2023-05-07T04:03:19;15.23;;;9.95;;
49440;SDS011;35317;51.978;6.296;2023-05-07T04:08:20;17.17;;;10.27;;
49440;SDS011;35317;51.978;6.296;2023-05-07T04:13:21;14.32;;;10.13;;
49440;SDS011;35317;51.978;6.296;2023-05-07T04:18:21;14.65;;;9.70;;
49440;SDS011;35317;51.978;6.296;2023-05-07T04:23:22;16.35;;;10.63;;
49440;SDS011;35317;51.978;6.296;2023-05-07T04:28:23;15.32;;;10.57;;
49440;SDS011;35317;51.978;6.296;2023-05-07T04:33:24;17.35;;;11.02;;
49440;SDS011;35317;51.978;6.296;2023-05-07T04:38:25;17.35;;;10.98;;
49440;SDS011;35317;51.978;6.296;2023-05-07T04:43:26;16.65;;;10.60;;
49440;SDS011;35317;51.978;6.296;2023-05-07T04:48:27;15.27;;;10.25;;
49440;SDS011;35317;51.978;6.296;2023-05-07T04:53:28;13.73;;;9.35;;
49440;SDS011;35317;51.978;6.296;2023-05-07T04:58:29;17.45;;;10.30;;
49440;SDS011;35317;51.978;6.296;2023-05-07T05:03:31;14.05;;;9.82;;
49440;SDS011;35317;51.978;6.296;2023-05-07T05:08:32;15.07;;;9.73;;
49440;SDS011;35317;51.978;6.296;2023-05-07T05:13:33;14.50;;;9.77;;
49440;SDS011;35317;51.978;6.296;2023-05-07T05:18:34;15.02;;;9.88;;
49440;SDS011;35317;51.978;6.296;2023-05-07T05:23:35;14.55;;;9.80;;
49440;SDS011;35317;51.978;6.296;2023-05-07T05:28:35;17.25;;;10.10;;
49440;SDS011;35317;51.978;6.296;2023-05-07T05:33:36;15.32;;;10.35;;
49440;SDS011;35317;51.978;6.296;2023-05-07T05:38:37;13.63;;;9.50;;
49440;SDS011;35317;51.978;6.296;2023-05-07T05:43:38;14.82;;;10.50;;
49440;SDS011;35317;51.978;6.296;2023-05-07T05:48:39;14.25;;;9.63;;
49440;SDS011;35317;51.978;6.296;2023-05-07T05:53:39;14.00;;;9.40;;
49440;SDS011;35317;51.978;6.296;2023-05-07T05:58:40;14.27;;;9.35;;
49440;SDS011;35317;51.978;6.296;2023-05-07T06:03:41;13.63;;;9.10;;
49440;SDS011;35317;51.978;6.296;2023-05-07T06:08:42;13.10;;;9.23;;
49440;SDS011;35317;51.978;6.296;2023-05-07T06:13:42;15.18;;;9.43;;
49440;SDS011;35317;51.978;6.296;2023-05-07T06:18:43;16.10;;;9.98;;
49440;SDS011;35317;51.978;6.296;2023-05-07T06:23:46;16.20;;;10.05;;
49440;SDS011;35317;51.978;6.296;2023-05-07T06:28:47;14.43;;;9.65;;
49440;SDS011;35317;51.978;6.296;2023-05-07T06:33:48;14.13;;;9.20;;
49440;SDS011;35317;51.978;6.296;2023-05-07T06:38:50;16.73;;;10.05;;
49440;SDS011;35317;51.978;6.296;2023-05-07T06:43:51;16.10;;;10.27;;
49440;SDS011;35317;51.978;6.296;2023-05-07T06:48:51;13.73;;;9.45;;
49440;SDS011;35317;51.978;6.296;2023-05-07T06:53:52;15.13;;;9.65;;
49440;SDS011;35317;51.978;6.296;2023-05-07T06:58:53;15.25;;;9.70;;
49440;SDS011;35317;51.978;6.296;2023-05-07T07:03:54;13.93;;;9.40;;
49440;SDS011;35317;51.978;6.296;2023-05-07T07:08:55;13.88;;;9.18;;
49440;SDS011;35317;51.978;6.296;2023-05-07T07:13:56;15.07;;;9.70;;
49440;SDS011;35317;51.978;6.296;2023-05-07T07:18:56;14.55;;;9.52;;
49440;SDS011;35317;51.978;6.296;2023-05-07T07:23:57;16.30;;;9.98;;
49440;SDS011;35317;51.978;6.296;2023-05-07T07:28:58;16.65;;;10.20;;
49440;SDS011;35317;51.978;6.296;2023-05-07T07:33:59;12.48;;;8.88;;
49440;SDS011;35317;51.978;6.296;2023-05-07T07:39:00;16.40;;;10.18;;
49440;SDS011;35317;51.978;6.296;2023-05-07T07:44:00;12.48;;;8.38;;
49440;SDS011;35317;51.978;6.296;2023-05-07T07:49:03;14.82;;;9.27;;
49440;SDS011;35317;51.978;6.296;2023-05-07T07:54:04;12.85;;;8.77;;
49440;SDS011;35317;51.978;6.296;2023-05-07T07:59:05;11.70;;;7.53;;
49440;SDS011;35317;51.978;6.296;2023-05-07T08:04:06;15.15;;;8.43;;
49440;SDS011;35317;51.978;6.296;2023-05-07T08:09:07;15.50;;;8.80;;
49440;SDS011;35317;51.978;6.296;2023-05-07T08:14:08;13.23;;;8.70;;
49440;SDS011;35317;51.978;6.296;2023-05-07T08:19:09;12.05;;;8.48;;
49440;SDS011;35317;51.978;6.296;2023-05-07T08:24:10;11.38;;;8.18;;
49440;SDS011;35317;51.978;6.296;2023-05-07T08:29:11;13.70;;;8.73;;
49440;SDS011;35317;51.978;6.296;2023-05-07T08:34:12;13.32;;;8.30;;
49440;SDS011;35317;51.978;6.296;2023-05-07T08:39:13;10.90;;;7.70;;
49440;SDS011;35317;51.978;6.296;2023-05-07T08:44:15;10.98;;;8.05;;
49440;SDS011;35317;51.978;6.296;2023-05-07T08:49:20;9.80;;;7.45;;
49440;SDS011;35317;51.978;6.296;2023-05-07T08:54:24;11.45;;;6.97;;
49440;SDS011;35317;51.978;6.296;2023-05-07T08:59:26;8.80;;;6.90;;
49440;SDS011;35317;51.978;6.296;2023-05-07T09:04:27;10.40;;;6.43;;
49440;SDS011;35317;51.978;6.296;2023-05-07T09:09:28;8.63;;;6.85;;
49440;SDS011;35317;51.978;6.296;2023-05-07T09:14:28;9.93;;;6.97;;
49440;SDS011;35317;51.978;6.296;2023-05-07T09:19:33;9.02;;;6.55;;
49440;SDS011;35317;51.978;6.296;2023-05-07T09:24:34;7.55;;;5.60;;
49440;SDS011;35317;51.978;6.296;2023-05-07T09:29:37;8.02;;;5.90;;
49440;SDS011;35317;51.978;6.296;2023-05-07T09:34:38;6.10;;;4.70;;
49440;SDS011;35317;51.978;6.296;2023-05-07T09:39:39;7.18;;;5.20;;
49440;SDS011;35317;51.978;6.296;2023-05-07T09:44:47;6.47;;;4.90;;
49440;SDS011;35317;51.978;6.296;2023-05-07T09:49:48;6.75;;;4.95;;
49440;SDS011;35317;51.978;6.296;2023-05-07T09:54:56;7.68;;;5.53;;
49440;SDS011;35317;51.978;6.296;2023-05-07T09:59:59;6.18;;;4.88;;
49440;SDS011;35317;51.978;6.296;2023-05-07T10:05:04;4.90;;;3.50;;
49440;SDS011;35317;51.978;6.296;2023-05-07T10:10:05;5.53;;;4.13;;
49440;SDS011;35317;51.978;6.296;2023-05-07T10:15:07;6.20;;;4.03;;
49440;SDS011;35317;51.978;6.296;2023-05-07T10:20:12;6.78;;;4.70;;
49440;SDS011;35317;51.978;6.296;2023-05-07T10:25:25;5.45;;;4.13;;
49440;SDS011;35317;51.978;6.296;2023-05-07T10:35:59;7.22;;;5.45;;
49440;SDS011;35317;51.978;6.296;2023-05-07T10:41:04;6.70;;;5.03;;
49440;SDS011;35317;51.978;6.296;2023-05-07T10:46:18;5.97;;;4.80;;
49440;SDS011;35317;51.978;6.296;2023-05-07T10:51:21;7.22;;;5.72;;
49440;SDS011;35317;51.978;6.296;2023-05-07T11:01:49;8.80;;;5.40;;
49440;SDS011;35317;51.978;6.296;2023-05-07T11:12:09;8.63;;;6.18;;
49440;SDS011;35317;51.978;6.296;2023-05-07T11:17:09;7.95;;;5.78;;
49440;SDS011;35317;51.978;6.296;2023-05-07T11:27:30;5.80;;;5.10;;
49440;SDS011;35317;51.978;6.296;2023-05-07T11:32:32;7.15;;;5.25;;
49440;SDS011;35317;51.978;6.296;2023-05-07T11:37:33;6.70;;;5.25;;
49440;SDS011;35317;51.978;6.296;2023-05-07T11:42:35;7.47;;;5.75;;
49440;SDS011;35317;51.978;6.296;2023-05-07T11:47:38;6.78;;;4.57;;
49440;SDS011;35317;51.978;6.296;2023-05-07T11:52:49;5.28;;;3.78;;
49440;SDS011;35317;51.978;6.296;2023-05-07T11:57:52;5.40;;;4.03;;
49440;SDS011;35317;51.978;6.296;2023-05-07T12:02:52;6.32;;;4.55;;
49440;SDS011;35317;51.978;6.296;2023-05-07T12:07:55;5.15;;;3.83;;
49440;SDS011;35317;51.978;6.296;2023-05-07T12:12:59;7.40;;;4.90;;
49440;SDS011;35317;51.978;6.296;2023-05-07T12:18:00;7.43;;;4.50;;
49440;SDS011;35317;51.978;6.296;2023-05-07T12:23:01;6.15;;;4.22;;
49440;SDS011;35317;51.978;6.296;2023-05-07T12:28:02;5.93;;;4.20;;
49440;SDS011;35317;51.978;6.296;2023-05-07T12:33:06;8.10;;;4.72;;
49440;SDS011;35317;51.978;6.296;2023-05-07T12:38:11;5.68;;;3.78;;
49440;SDS011;35317;51.978;6.296;2023-05-07T12:43:17;6.57;;;3.67;;
49440;SDS011;35317;51.978;6.296;2023-05-07T12:48:27;5.82;;;4.05;;
49440;SDS011;35317;51.978;6.296;2023-05-07T12:53:29;5.65;;;3.55;;
49440;SDS011;35317;51.978;6.296;2023-05-07T12:58:33;6.80;;;3.90;;
49440;SDS011;35317;51.978;6.296;2023-05-07T13:03:35;4.35;;;3.15;;
49440;SDS011;35317;51.978;6.296;2023-05-07T13:08:41;5.30;;;3.70;;
49440;SDS011;35317;51.978;6.296;2023-05-07T13:13:45;4.20;;;3.28;;
49440;SDS011;35317;51.978;6.296;2023-05-07T13:18:46;4.13;;;3.20;;
49440;SDS011;35317;51.978;6.296;2023-05-07T13:23:46;4.47;;;3.50;;
49440;SDS011;35317;51.978;6.296;2023-05-07T13:28:47;5.72;;;3.63;;
49440;SDS011;35317;51.978;6.296;2023-05-07T13:33:48;4.80;;;3.63;;
49440;SDS011;35317;51.978;6.296;2023-05-07T13:38:50;5.68;;;3.53;;
49440;SDS011;35317;51.978;6.296;2023-05-07T13:43:51;6.28;;;4.30;;
49440;SDS011;35317;51.978;6.296;2023-05-07T13:48:52;7.65;;;4.95;;
49440;SDS011;35317;51.978;6.296;2023-05-07T13:53:53;7.00;;;5.00;;
49440;SDS011;35317;51.978;6.296;2023-05-07T13:58:54;5.32;;;4.03;;
49440;SDS011;35317;51.978;6.296;2023-05-07T14:03:55;5.97;;;4.40;;
49440;SDS011;35317;51.978;6.296;2023-05-07T14:08:57;7.93;;;4.57;;
49440;SDS011;35317;51.978;6.296;2023-05-07T14:13:58;6.70;;;4.30;;
49440;SDS011;35317;51.978;6.296;2023-05-07T14:18:59;7.20;;;4.78;;
49440;SDS011;35317;51.978;6.296;2023-05-07T14:24:00;6.95;;;5.05;;
49440;SDS011;35317;51.978;6.296;2023-05-07T14:29:00;10.50;;;5.38;;
49440;SDS011;35317;51.978;6.296;2023-05-07T14:34:02;6.78;;;4.28;;
49440;SDS011;35317;51.978;6.296;2023-05-07T14:39:02;6.78;;;4.93;;
49440;SDS011;35317;51.978;6.296;2023-05-07T14:44:04;8.77;;;4.88;;
49440;SDS011;35317;51.978;6.296;2023-05-07T14:49:04;6.03;;;4.65;;
49440;SDS011;35317;51.978;6.296;2023-05-07T14:54:06;8.23;;;5.30;;
49440;SDS011;35317;51.978;6.296;2023-05-07T14:59:07;9.55;;;6.30;;
49440;SDS011;35317;51.978;6.296;2023-05-07T15:04:08;12.30;;;6.60;;
49440;SDS011;35317;51.978;6.296;2023-05-07T15:09:09;8.88;;;5.60;;
49440;SDS011;35317;51.978;6.296;2023-05-07T15:14:10;13.02;;;6.38;;
49440;SDS011;35317;51.978;6.296;2023-05-07T15:19:11;9.30;;;5.72;;
49440;SDS011;35317;51.978;6.296;2023-05-07T15:24:12;7.80;;;4.93;;
49440;SDS011;35317;51.978;6.296;2023-05-07T15:29:13;5.88;;;4.15;;
49440;SDS011;35317;51.978;6.296;2023-05-07T15:34:13;5.88;;;4.10;;
49440;SDS011;35317;51.978;6.296;2023-05-07T15:39:17;4.97;;;3.90;;
49440;SDS011;35317;51.978;6.296;2023-05-07T15:44:18;8.25;;;5.07;;
49440;SDS011;35317;51.978;6.296;2023-05-07T15:49:18;8.55;;;5.15;;
49440;SDS011;35317;51.978;6.296;2023-05-07T15:54:19;9.00;;;5.65;;
49440;SDS011;35317;51.978;6.296;2023-05-07T15:59:21;8.18;;;5.65;;
49440;SDS011;35317;51.978;6.296;2023-05-07T16:04:21;8.95;;;6.63;;
49440;SDS011;35317;51.978;6.296;2023-05-07T16:09:22;10.60;;;6.53;;
49440;SDS011;35317;51.978;6.296;2023-05-07T16:14:24;9.10;;;5.57;;
49440;SDS011;35317;51.978;6.296;2023-05-07T16:19:25;7.88;;;5.97;;
49440;SDS011;35317;51.978;6.296;2023-05-07T16:24:26;9.73;;;6.07;;
49440;SDS011;35317;51.978;6.296;2023-05-07T16:29:27;8.32;;;5.80;;
49440;SDS011;35317;51.978;6.296;2023-05-07T16:34:28;7.13;;;5.35;;
49440;SDS011;35317;51.978;6.296;2023-05-07T16:39:31;10.25;;;6.93;;
49440;SDS011;35317;51.978;6.296;2023-05-07T16:44:32;9.88;;;6.90;;
49440;SDS011;35317;51.978;6.296;2023-05-07T16:49:33;8.75;;;5.78;;
49440;SDS011;35317;51.978;6.296;2023-05-07T16:54:34;5.15;;;3.72;;
49440;SDS011;35317;51.978;6.296;2023-05-07T16:59:36;4.50;;;3.58;;
49440;SDS011;35317;51.978;6.296;2023-05-07T17:04:36;5.70;;;3.30;;
49440;SDS011;35317;51.978;6.296;2023-05-07T17:09:37;9.90;;;5.50;;
49440;SDS011;35317;51.978;6.296;2023-05-07T17:14:38;7.70;;;5.20;;
49440;SDS011;35317;51.978;6.296;2023-05-07T17:19:39;5.28;;;2.65;;
49440;SDS011;35317;51.978;6.296;2023-05-07T17:24:43;5.57;;;2.80;;
49440;SDS011;35317;51.978;6.296;2023-05-07T17:29:44;4.38;;;2.63;;
49440;SDS011;35317;51.978;6.296;2023-05-07T17:34:45;5.72;;;3.13;;
49440;SDS011;35317;51.978;6.296;2023-05-07T17:39:45;5.22;;;3.15;;
49440;SDS011;35317;51.978;6.296;2023-05-07T17:44:47;4.45;;;3.50;;
49440;SDS011;35317;51.978;6.296;2023-05-07T17:49:48;9.55;;;5.20;;
49440;SDS011;35317;51.978;6.296;2023-05-07T17:54:49;6.75;;;4.25;;
49440;SDS011;35317;51.978;6.296;2023-05-07T17:59:50;8.48;;;4.90;;
49440;SDS011;35317;51.978;6.296;2023-05-07T18:04:50;7.28;;;5.07;;
49440;SDS011;35317;51.978;6.296;2023-05-07T18:09:51;6.90;;;4.43;;
49440;SDS011;35317;51.978;6.296;2023-05-07T18:14:52;4.50;;;3.25;;
49440;SDS011;35317;51.978;6.296;2023-05-07T18:26:19;4.47;;;3.10;;
49440;SDS011;35317;51.978;6.296;2023-05-07T18:43:53;6.50;;;3.20;;
49440;SDS011;35317;51.978;6.296;2023-05-07T18:48:54;5.60;;;3.47;;
49440;SDS011;35317;51.978;6.296;2023-05-07T18:53:55;4.80;;;3.03;;
49440;SDS011;35317;51.978;6.296;2023-05-07T18:58:56;6.78;;;3.90;;
49440;SDS011;35317;51.978;6.296;2023-05-07T19:10:15;6.70;;;3.78;;
49440;SDS011;35317;51.978;6.296;2023-05-07T19:15:44;6.78;;;4.05;;
49440;SDS011;35317;51.978;6.296;2023-05-07T19:20:48;7.85;;;4.63;;
49440;SDS011;35317;51.978;6.296;2023-05-07T19:25:50;8.32;;;5.47;;
49440;SDS011;35317;51.978;6.296;2023-05-07T19:37:16;10.57;;;6.25;;
49440;SDS011;35317;51.978;6.296;2023-05-07T19:42:59;11.05;;;5.60;;
49440;SDS011;35317;51.978;6.296;2023-05-07T19:48:00;13.98;;;7.53;;
49440;SDS011;35317;51.978;6.296;2023-05-07T20:03:56;15.00;;;7.88;;
49440;SDS011;35317;51.978;6.296;2023-05-07T20:14:49;14.35;;;8.05;;
49440;SDS011;35317;51.978;6.296;2023-05-07T20:19:50;13.50;;;8.40;;
49440;SDS011;35317;51.978;6.296;2023-05-07T20:24:58;15.38;;;8.05;;
49440;SDS011;35317;51.978;6.296;2023-05-07T20:29:59;19.33;;;8.38;;
49440;SDS011;35317;51.978;6.296;2023-05-07T20:42:52;19.67;;;8.00;;
49440;SDS011;35317;51.978;6.296;2023-05-07T21:15:41;19.27;;;8.55;;
49440;SDS011;35317;51.978;6.296;2023-05-07T21:22:10;18.98;;;8.13;;
49440;SDS011;35317;51.978;6.296;2023-05-07T21:27:11;17.48;;;7.85;;
49440;SDS011;35317;51.978;6.296;2023-05-07T21:32:12;20.77;;;9.48;;
49440;SDS011;35317;51.978;6.296;2023-05-07T21:37:15;18.30;;;8.98;;
49440;SDS011;35317;51.978;6.296;2023-05-07T21:42:16;20.40;;;9.05;;
49440;SDS011;35317;51.978;6.296;2023-05-07T21:53:17;17.55;;;9.20;;
49440;SDS011;35317;51.978;6.296;2023-05-07T21:58:18;21.25;;;9.52;;
49440;SDS011;35317;51.978;6.296;2023-05-07T22:03:19;21.13;;;10.27;;
49440;SDS011;35317;51.978;6.296;2023-05-07T22:08:20;28.40;;;11.13;;
49440;SDS011;35317;51.978;6.296;2023-05-07T22:13:21;22.17;;;11.07;;
49440;SDS011;35317;51.978;6.296;2023-05-07T22:18:22;23.70;;;11.05;;
49440;SDS011;35317;51.978;6.296;2023-05-07T22:23:24;24.48;;;11.50;;
49440;SDS011;35317;51.978;6.296;2023-05-07T22:28:25;22.55;;;10.90;;
49440;SDS011;35317;51.978;6.296;2023-05-07T22:33:26;21.35;;;10.93;;
49440;SDS011;35317;51.978;6.296;2023-05-07T22:43:52;23.77;;;11.02;;
49440;SDS011;35317;51.978;6.296;2023-05-07T22:48:53;25.50;;;11.27;;
